Time;durP1;ratioP1;P1;durP2;ratioP2;P2;SDS_P1;SDS_P2;PMS_P1;PMS_P2;Temp;Humidity;BMP_temperature;BMP_pressure;BME280_temperature;BME280_humidity;BME280_pressure;Samples;Min_cycle;Max_cycle;Signal;HPM_P1;HPM_P2
2022/08/31 00:04:46;;;;;;;4.28;3.20;;;;;;;17.07;75.45;101942.69;4770405;30;20113;-62
2022/08/31 00:07:12;;;;;;;5.82;3.40;;;;;;;16.99;75.63;101940.22;4770119;30;20051;-59
2022/08/31 00:09:37;;;;;;;4.82;2.88;;;;;;;16.98;75.93;101944.63;4770064;30;20043;-59
2022/08/31 00:12:02;;;;;;;3.97;3.50;;;;;;;16.88;75.94;101932.53;4770248;30;20096;-59
2022/08/31 00:14:28;;;;;;;3.88;3.22;;;;;;;16.91;76.39;101940.41;4770050;30;20078;-63
2022/08/31 00:16:53;;;;;;;4.53;3.55;;;;;;;17.01;76.28;101939.28;4769948;30;20089;-60
2022/08/31 00:19:18;;;;;;;5.13;3.45;;;;;;;16.97;76.34;101942.88;4769967;30;20435;-59
2022/08/31 00:21:44;;;;;;;3.85;3.35;;;;;;;16.99;76.35;101934.94;4769726;30;20054;-60
2022/08/31 00:24:09;;;;;;;5.22;3.35;;;;;;;16.91;76.80;101934.25;4769895;30;20079;-61
2022/08/31 00:26:35;;;;;;;4.68;3.70;;;;;;;16.86;77.29;101939.63;4769623;30;20051;-59
2022/08/31 00:29:01;;;;;;;4.15;3.13;;;;;;;16.85;77.78;101937.00;4769786;30;20058;-59
2022/08/31 00:31:26;;;;;;;4.38;3.25;;;;;;;16.82;78.08;101942.34;4769543;30;20442;-59
2022/08/31 00:33:52;;;;;;;4.95;3.10;;;;;;;16.87;77.81;101951.06;4769743;30;20115;-59
2022/08/31 00:36:20;;;;;;;5.25;3.17;;;;;;;16.80;78.37;101942.38;4769837;30;20066;-59
2022/08/31 00:38:47;;;;;;;3.95;3.13;;;;;;;16.86;77.89;101942.28;4769658;30;20047;-59
2022/08/31 00:41:14;;;;;;;4.53;3.33;;;;;;;16.83;77.94;101944.97;4769497;30;20050;-61
2022/08/31 00:43:48;;;;;;;4.70;3.20;;;;;;;16.81;78.20;101945.91;4769536;30;20058;-60
2022/08/31 00:46:18;;;;;;;6.25;3.28;;;;;;;16.82;78.69;101943.22;4769638;30;20032;-59
2022/08/31 00:48:49;;;;;;;4.88;3.40;;;;;;;16.81;78.49;101940.63;4769671;30;20039;-59
2022/08/31 00:51:15;;;;;;;3.95;3.22;;;;;;;16.84;78.54;101936.13;4769395;30;20130;-61
2022/08/31 00:53:40;;;;;;;5.53;3.42;;;;;;;16.79;78.64;101937.16;4769431;30;20122;-59
2022/08/31 00:56:06;;;;;;;4.45;3.00;;;;;;;16.84;78.41;101929.97;4769419;30;20067;-59
2022/08/31 00:58:32;;;;;;;6.50;3.28;;;;;;;16.83;78.69;101929.09;4769562;30;20055;-62
2022/08/31 01:00:58;;;;;;;4.45;3.30;;;;;;;16.78;78.81;101941.59;4769193;30;20047;-59
2022/08/31 01:03:24;;;;;;;4.10;3.00;;;;;;;16.79;78.74;101930.09;4769284;30;20050;-59
2022/08/31 01:05:50;;;;;;;9.20;3.70;;;;;;;16.78;78.88;101940.72;4769163;30;20035;-59
2022/08/31 01:08:16;;;;;;;3.90;3.28;;;;;;;16.77;78.89;101937.19;4769016;30;20132;-58
2022/08/31 01:10:43;;;;;;;4.30;3.22;;;;;;;16.74;79.09;101937.25;4768969;30;20044;-59
2022/08/31 01:13:11;;;;;;;3.92;2.90;;;;;;;16.78;78.67;101938.94;4769030;30;20058;-60
2022/08/31 01:15:42;;;;;;;4.18;2.60;;;;;;;16.80;79.03;101944.16;4768921;30;20036;-59
2022/08/31 01:18:08;;;;;;;4.88;3.00;;;;;;;16.79;78.81;101938.03;4768959;30;20070;-59
2022/08/31 01:20:52;;;;;;;5.25;3.00;;;;;;;16.83;78.77;101928.25;4768418;30;20031;-59
2022/08/31 01:23:24;;;;;;;4.45;3.10;;;;;;;16.79;78.95;101932.75;4768936;30;20047;-59
2022/08/31 01:25:51;;;;;;;4.70;3.07;;;;;;;16.72;78.89;101936.41;4768907;30;20066;-60
2022/08/31 01:28:17;;;;;;;4.65;3.30;;;;;;;16.73;79.17;101935.50;4768965;30;20047;-60
2022/08/31 01:30:43;;;;;;;3.42;2.80;;;;;;;16.69;78.93;101936.47;4768567;30;20050;-58
2022/08/31 01:33:08;;;;;;;4.55;2.90;;;;;;;16.72;79.09;101939.06;4768735;30;20082;-61
2022/08/31 01:35:34;;;;;;;5.22;3.10;;;;;;;16.66;79.10;101928.59;4768731;30;20067;-61
2022/08/31 01:38:00;;;;;;;5.43;3.08;;;;;;;16.68;79.02;101932.97;4768639;30;20050;-59
2022/08/31 01:40:36;;;;;;;5.60;3.10;;;;;;;16.68;78.74;101935.59;4768635;30;20489;-61
2022/08/31 01:43:01;;;;;;;4.05;3.05;;;;;;;16.67;79.14;101935.63;4768512;30;20052;-61
2022/08/31 01:45:27;;;;;;;5.07;2.90;;;;;;;16.59;79.72;101929.63;4768391;30;20044;-59
2022/08/31 01:47:52;;;;;;;3.28;2.78;;;;;;;16.56;79.82;101925.25;4768605;30;20039;-60
2022/08/31 01:50:18;;;;;;;4.43;2.78;;;;;;;16.53;79.55;101932.38;4768704;30;20039;-61
2022/08/31 01:52:43;;;;;;;3.28;2.88;;;;;;;16.55;79.80;101935.88;4768593;30;20132;-60
2022/08/31 01:55:09;;;;;;;4.75;3.00;;;;;;;16.51;80.15;101937.69;4768121;30;20071;-61
2022/08/31 01:57:34;;;;;;;5.90;2.95;;;;;;;16.52;80.06;101942.09;4768568;30;20047;-63
2022/08/31 02:00:03;;;;;;;3.50;2.72;;;;;;;16.44;80.43;101935.22;4768381;30;20354;-60
2022/08/31 02:02:28;;;;;;;5.18;2.95;;;;;;;16.51;80.26;101947.41;4768041;30;20043;-60
2022/08/31 02:04:53;;;;;;;4.63;3.00;;;;;;;16.44;80.19;101940.50;4768640;30;20050;-60
2022/08/31 02:07:19;;;;;;;3.22;2.70;;;;;;;16.43;80.35;101947.56;4768497;30;20035;-62
2022/08/31 02:09:44;;;;;;;5.50;3.60;;;;;;;16.40;80.73;101942.34;4768476;30;20032;-63
2022/08/31 02:12:09;;;;;;;4.43;2.92;;;;;;;16.40;80.53;101946.75;4768369;30;20046;-60
2022/08/31 02:14:35;;;;;;;5.38;2.80;;;;;;;16.39;80.80;101939.72;4768282;30;20447;-60
2022/08/31 02:17:00;;;;;;;4.50;2.70;;;;;;;16.33;80.99;101932.78;4768065;30;20181;-60
2022/08/31 02:19:25;;;;;;;4.57;3.10;;;;;;;16.36;80.80;101933.59;4768164;30;20059;-60
2022/08/31 02:21:50;;;;;;;3.88;3.15;;;;;;;16.29;81.04;101936.38;4768206;30;20077;-61
2022/08/31 02:24:16;;;;;;;4.63;3.03;;;;;;;16.20;81.24;101928.66;4768198;30;20475;-59
2022/08/31 02:26:41;;;;;;;4.25;3.00;;;;;;;16.22;81.25;101943.56;4768033;30;20093;-61
2022/08/31 02:29:07;;;;;;;5.28;3.15;;;;;;;16.23;81.54;101947.06;4768114;30;20476;-62
2022/08/31 02:31:32;;;;;;;6.15;3.20;;;;;;;16.21;81.33;101947.09;4767923;30;20043;-60
2022/08/31 02:33:58;;;;;;;3.70;3.33;;;;;;;16.19;81.55;101948.91;4768323;30;20489;-62
2022/08/31 02:36:24;;;;;;;5.10;3.10;;;;;;;16.20;81.43;101953.28;4768199;30;20044;-60
2022/08/31 02:38:49;;;;;;;3.70;3.28;;;;;;;16.17;81.70;101948.06;4768265;30;20076;-62
2022/08/31 02:41:16;;;;;;;3.22;2.92;;;;;;;16.18;81.68;101947.16;4768117;30;20043;-61
2022/08/31 02:43:41;;;;;;;3.90;3.10;;;;;;;16.13;81.58;101950.78;4769672;30;20047;-58
2022/08/31 02:46:07;;;;;;;4.25;3.20;;;;;;;16.05;82.13;101943.00;4771370;30;20054;-62
2022/08/31 02:48:33;;;;;;;5.90;3.15;;;;;;;16.03;82.21;101947.44;4771471;30;20043;-59
2022/08/31 02:51:08;;;;;;;3.97;2.90;;;;;;;16.06;82.23;101949.16;4771157;30;20343;-61
2022/08/31 02:53:34;;;;;;;7.55;3.08;;;;;;;15.96;82.77;101945.81;4771108;30;20040;-58
2022/08/31 02:55:59;;;;;;;4.97;3.45;;;;;;;16.00;82.42;101942.22;4771159;30;20138;-60
2022/08/31 02:58:25;;;;;;;3.80;3.22;;;;;;;15.95;82.47;101938.78;4771250;30;20512;-59
2022/08/31 03:00:51;;;;;;;4.60;3.20;;;;;;;15.90;82.58;101941.53;4771188;30;20052;-60
2022/08/31 03:03:17;;;;;;;3.50;2.83;;;;;;;15.84;82.95;101938.97;4771138;30;20070;-60
2022/08/31 03:05:42;;;;;;;4.13;3.13;;;;;;;15.82;82.94;101943.41;4771171;30;20071;-60
2022/08/31 03:08:07;;;;;;;4.90;3.25;;;;;;;15.82;83.08;101942.53;4771034;30;20051;-59
2022/08/31 03:10:33;;;;;;;6.32;3.30;;;;;;;15.82;83.03;101945.19;4771094;30;20032;-60
2022/08/31 03:12:58;;;;;;;3.80;3.08;;;;;;;15.85;83.13;101945.13;4770992;30;20082;-60
2022/08/31 03:15:24;;;;;;;4.72;3.05;;;;;;;15.85;83.06;101940.72;4770916;30;20472;-61
2022/08/31 03:17:50;;;;;;;4.03;3.13;;;;;;;15.82;82.94;101937.25;4770929;30;20213;-58
2022/08/31 03:20:17;;;;;;;6.68;3.17;;;;;;;15.81;83.02;101939.03;4770896;30;20510;-59
2022/08/31 03:22:43;;;;;;;4.13;3.22;;;;;;;15.81;83.25;101944.31;4770865;30;20495;-59
2022/08/31 03:25:09;;;;;;;4.63;3.35;;;;;;;15.76;83.18;101937.38;4770924;30;20043;-60
2022/08/31 03:27:36;;;;;;;6.05;3.38;;;;;;;15.73;83.30;101940.09;4770820;30;20522;-61
2022/08/31 03:30:04;;;;;;;4.43;3.30;;;;;;;15.67;83.38;101943.69;4770726;30;20134;-59
2022/08/31 03:32:30;;;;;;;5.70;3.10;;;;;;;15.65;83.93;101941.06;4770813;30;20047;-58
2022/08/31 03:34:57;;;;;;;3.50;3.20;;;;;;;15.64;83.49;101949.88;4770647;30;20039;-61
2022/08/31 03:37:23;;;;;;;3.58;3.28;;;;;;;15.63;83.82;101950.78;4770781;30;20462;-59
2022/08/31 03:39:49;;;;;;;4.28;3.20;;;;;;;15.63;83.72;101945.50;4770665;30;20065;-62
2022/08/31 03:42:15;;;;;;;5.10;3.00;;;;;;;15.66;83.32;101948.09;4770517;30;20537;-61
2022/08/31 03:44:40;;;;;;;7.35;3.30;;;;;;;15.62;83.53;101951.66;4770384;30;20054;-61
2022/08/31 03:47:05;;;;;;;7.63;3.65;;;;;;;15.51;83.42;101944.81;4770690;30;20044;-59
2022/08/31 03:49:31;;;;;;;5.07;3.47;;;;;;;15.57;83.76;101950.03;4770571;30;20126;-59
2022/08/31 03:51:57;;;;;;;3.83;3.42;;;;;;;15.46;83.65;101947.50;4770368;30;20040;-59
2022/08/31 03:54:22;;;;;;;6.15;3.28;;;;;;;15.41;83.87;101954.59;4769691;30;20056;-59
2022/08/31 03:56:48;;;;;;;3.85;3.45;;;;;;;15.38;84.33;101949.41;4769941;30;20067;-58
2022/08/31 03:59:13;;;;;;;4.07;3.35;;;;;;;15.30;84.00;101952.16;4770149;30;20125;-59
2022/08/31 04:01:38;;;;;;;3.28;2.88;;;;;;;15.30;83.94;101951.28;4770014;30;20094;-58
2022/08/31 04:04:04;;;;;;;3.67;3.38;;;;;;;15.23;84.14;101947.88;4770239;30;20438;-61
2022/08/31 04:06:30;;;;;;;4.13;3.30;;;;;;;15.18;84.29;101946.19;4770361;30;20438;-59
2022/08/31 04:08:55;;;;;;;7.30;3.72;;;;;;;15.18;84.08;101957.63;4770377;30;20469;-58
2022/08/31 04:11:21;;;;;;;6.25;3.85;;;;;;;15.14;84.24;101950.63;4769907;30;20044;-59
2022/08/31 04:13:47;;;;;;;4.40;3.60;;;;;;;15.12;84.06;101947.16;4769756;30;20393;-59
2022/08/31 04:16:16;;;;;;;5.18;3.33;;;;;;;15.10;84.13;101953.34;4769907;30;20039;-60
2022/08/31 04:18:43;;;;;;;5.65;3.50;;;;;;;15.11;83.87;101944.53;4769818;30;20036;-60
2022/08/31 04:21:13;;;;;;;5.53;3.25;;;;;;;15.25;83.62;101950.47;4769852;30;20113;-59
2022/08/31 04:23:39;;;;;;;7.32;3.40;;;;;;;15.19;83.43;101953.22;4769712;30;20188;-62
2022/08/31 04:26:18;;;;;;;5.90;3.35;;;;;;;15.08;83.10;101941.94;4769761;30;20043;-59
2022/08/31 04:28:44;;;;;;;4.97;3.08;;;;;;;15.18;82.81;101956.75;4769620;30;20040;-60
2022/08/31 04:31:09;;;;;;;7.05;3.35;;;;;;;15.20;83.01;101957.59;4769590;30;20055;-60
2022/08/31 04:33:36;;;;;;;4.22;2.88;;;;;;;15.16;82.37;101962.03;4769932;30;20450;-59
2022/08/31 04:36:08;;;;;;;5.50;2.97;;;;;;;15.11;82.29;101966.50;4769638;30;20062;-60
2022/08/31 04:38:34;;;;;;;10.07;3.10;;;;;;;15.07;81.93;101964.78;4769625;30;20040;-59
2022/08/31 04:41:09;;;;;;;3.05;2.55;;;;;;;15.02;82.08;101968.41;4769610;30;20039;-59
2022/08/31 04:43:36;;;;;;;3.92;2.83;;;;;;;15.00;82.02;101973.69;4769452;30;20043;-60
2022/08/31 04:46:06;;;;;;;4.53;2.75;;;;;;;14.97;82.00;101961.41;4769357;30;20051;-60
2022/08/31 04:48:31;;;;;;;3.47;2.70;;;;;;;14.85;81.81;101948.41;4769593;30;20373;-59
2022/08/31 04:51:11;;;;;;;4.32;3.17;;;;;;;14.88;81.85;101963.31;4769398;30;20036;-60
2022/08/31 04:53:38;;;;;;;5.13;2.80;;;;;;;14.80;81.94;101965.16;4769491;30;20043;-60
2022/08/31 04:56:06;;;;;;;4.47;2.70;;;;;;;14.81;81.98;101964.28;4769383;30;20092;-61
2022/08/31 04:58:31;;;;;;;4.95;2.90;;;;;;;14.80;81.65;101976.59;4769207;30;20039;-61
2022/08/31 05:00:57;;;;;;;5.40;2.90;;;;;;;14.81;81.59;101974.81;4769464;30;20039;-58
2022/08/31 05:03:22;;;;;;;3.97;2.60;;;;;;;14.73;81.78;101976.66;4769341;30;20070;-59
2022/08/31 05:05:51;;;;;;;3.45;3.00;;;;;;;14.76;81.68;101974.00;4785195;29;20043;-59
2022/08/31 05:08:17;;;;;;;4.18;3.03;;;;;;;14.72;81.86;101975.78;4786819;29;20034;-60
2022/08/31 05:10:42;;;;;;;9.18;2.97;;;;;;;14.62;82.18;101975.06;4787013;29;20339;-58
2022/08/31 05:13:08;;;;;;;3.80;2.88;;;;;;;14.63;82.06;101971.53;4786976;30;20043;-59
2022/08/31 05:15:38;;;;;;;6.10;2.70;;;;;;;14.61;82.24;101975.94;4784242;29;20039;-63
2022/08/31 05:18:03;;;;;;;3.22;2.33;;;;;;;14.61;82.29;101977.69;4781660;29;20124;-62
2022/08/31 05:20:29;;;;;;;4.13;2.83;;;;;;;14.55;82.02;101983.03;4786942;30;20544;-60
2022/08/31 05:22:54;;;;;;;5.53;2.60;;;;;;;14.51;81.96;101973.44;4786782;30;20035;-62
2022/08/31 05:25:19;;;;;;;5.32;2.75;;;;;;;14.52;81.91;101983.97;4786442;30;20481;-60
2022/08/31 05:27:44;;;;;;;3.83;2.67;;;;;;;14.55;81.89;101980.41;4786384;29;20039;-55
2022/08/31 05:30:10;;;;;;;6.32;2.50;;;;;;;14.44;81.32;101954.19;4786720;30;20453;-61
2022/08/31 05:32:35;;;;;;;3.35;2.25;;;;;;;14.54;81.20;101982.19;4786715;29;20035;-63
2022/08/31 05:35:01;;;;;;;2.90;2.60;;;;;;;14.53;80.72;101983.06;4786431;30;20066;-60
2022/08/31 05:37:26;;;;;;;4.03;2.70;;;;;;;14.58;80.87;101981.25;4786645;30;20108;-63
2022/08/31 05:39:51;;;;;;;3.47;2.70;;;;;;;14.54;80.47;101983.94;4786403;29;20049;-61
2022/08/31 05:42:18;;;;;;;6.05;2.63;;;;;;;14.59;80.01;101984.75;4786637;30;20039;-60
2022/08/31 05:44:44;;;;;;;4.65;2.33;;;;;;;14.62;80.39;101987.34;4786630;29;20051;-60
2022/08/31 05:47:09;;;;;;;4.80;2.30;;;;;;;14.65;79.41;101989.06;4783070;29;20047;-61
2022/08/31 05:49:35;;;;;;;4.25;2.50;;;;;;;14.69;79.49;101989.03;4770925;30;20455;-60
2022/08/31 05:52:01;;;;;;;2.80;2.30;;;;;;;14.77;78.85;101994.19;4781592;30;20047;-63
2022/08/31 05:54:27;;;;;;;4.25;2.10;;;;;;;14.78;78.27;101993.31;4786207;29;20067;-61
2022/08/31 05:56:52;;;;;;;5.00;2.17;;;;;;;14.75;77.66;101967.84;4786447;29;20146;-60
2022/08/31 05:59:18;;;;;;;4.70;2.30;;;;;;;14.96;77.39;101991.31;4786306;30;20292;-59
2022/08/31 06:01:43;;;;;;;6.70;2.28;;;;;;;14.89;77.06;101992.25;4786385;29;20108;-50
2022/08/31 06:04:09;;;;;;;6.80;2.08;;;;;;;14.89;76.82;101994.91;4786246;30;20043;-62
2022/08/31 06:06:36;;;;;;;3.90;2.17;;;;;;;14.98;76.33;102002.72;4786212;29;20126;-60
2022/08/31 06:09:02;;;;;;;3.58;2.30;;;;;;;15.10;75.01;102003.41;4786269;29;20042;-60
2022/08/31 06:11:30;;;;;;;4.53;2.20;;;;;;;15.13;74.84;102009.53;4786209;29;20140;-60
2022/08/31 06:13:57;;;;;;;2.47;1.90;;;;;;;15.04;75.05;101998.25;4786589;29;20050;-62
2022/08/31 06:16:23;;;;;;;4.03;2.10;;;;;;;15.10;75.22;102009.56;4786119;29;20112;-62
2022/08/31 06:18:49;;;;;;;3.65;2.03;;;;;;;15.13;74.54;102006.03;4788015;29;20047;-63
2022/08/31 06:21:19;;;;;;;4.40;1.90;;;;;;;15.19;74.21;102008.59;4789775;29;20043;-61
2022/08/31 06:23:46;;;;;;;3.78;2.17;;;;;;;15.21;73.82;102014.72;4789771;29;20096;-58
2022/08/31 06:26:14;;;;;;;4.60;2.33;;;;;;;15.17;73.78;102008.59;4789728;29;20051;-61
2022/08/31 06:28:42;;;;;;;4.90;2.42;;;;;;;15.23;73.77;102016.44;4789947;29;20108;-60
2022/08/31 06:31:32;;;;;;;3.35;2.10;;;;;;;15.38;74.08;102012.72;4789466;29;20062;-59
2022/08/31 06:33:58;;;;;;;3.10;1.85;;;;;;;15.48;73.45;102014.31;4789431;29;20039;-60
2022/08/31 06:36:28;;;;;;;4.82;2.38;;;;;;;15.59;72.40;102022.09;4789591;29;20102;-60
2022/08/31 06:38:55;;;;;;;6.53;2.15;;;;;;;15.69;71.82;102026.34;4780245;29;20361;-59
2022/08/31 06:41:23;;;;;;;4.90;2.25;;;;;;;15.72;70.90;102012.22;4789703;29;20035;-59
2022/08/31 06:43:49;;;;;;;2.67;2.10;;;;;;;15.85;71.07;102024.31;4783995;29;20711;-59
2022/08/31 06:46:16;;;;;;;2.55;2.13;;;;;;;15.94;70.04;102019.75;4789297;29;20051;-59
2022/08/31 06:48:42;;;;;;;8.13;2.22;;;;;;;15.91;69.27;102009.28;4779500;29;20109;-60
2022/08/31 06:51:09;;;;;;;3.40;1.90;;;;;;;15.96;69.88;102028.53;4773606;30;20054;-60
2022/08/31 06:53:38;;;;;;;3.85;1.90;;;;;;;15.98;69.21;102026.72;4780690;30;20474;-61
2022/08/31 06:56:10;;;;;;;5.28;2.78;;;;;;;15.95;69.90;102033.81;4789110;29;20070;-61
2022/08/31 06:58:35;;;;;;;4.00;2.08;;;;;;;16.02;69.32;102027.56;4789144;29;20047;-61
2022/08/31 07:01:10;;;;;;;3.65;2.30;;;;;;;16.17;69.16;102029.06;4784911;29;20394;-61
2022/08/31 07:03:37;;;;;;;3.72;2.13;;;;;;;16.19;68.88;102032.53;4771330;30;20054;-60
2022/08/31 07:06:08;;;;;;;7.30;2.40;;;;;;;16.18;68.45;102033.44;4777374;30;20055;-60
2022/08/31 07:08:35;;;;;;;3.40;1.92;;;;;;;16.30;67.70;102033.22;4789050;29;20047;-60
2022/08/31 07:11:01;;;;;;;3.10;2.17;;;;;;;16.31;67.16;102033.19;4788547;29;20400;-60
2022/08/31 07:13:27;;;;;;;4.00;2.00;;;;;;;16.22;67.33;102029.84;4769614;29;20058;-59
2022/08/31 07:16:02;;;;;;;5.72;2.10;;;;;;;16.21;67.93;102028.13;4769794;30;20383;-60
2022/08/31 07:18:27;;;;;;;2.75;2.00;;;;;;;16.20;67.34;102035.16;4769771;30;20047;-62
2022/08/31 07:20:53;;;;;;;3.47;2.10;;;;;;;16.21;67.75;102036.03;4769673;30;20046;-61
2022/08/31 07:23:18;;;;;;;4.07;2.47;;;;;;;16.24;67.70;102038.63;4767056;30;20124;-62
2022/08/31 07:25:44;;;;;;;4.47;2.00;;;;;;;16.27;67.58;102033.28;4768935;30;20042;-61
2022/08/31 07:28:10;;;;;;;2.85;1.90;;;;;;;16.36;66.74;102028.69;4768794;30;20390;-60
2022/08/31 07:30:37;;;;;;;4.97;2.13;;;;;;;16.42;66.87;102034.78;4769649;30;20566;-62
2022/08/31 07:33:04;;;;;;;6.63;2.58;;;;;;;16.45;65.92;102034.72;4770773;30;20036;-63
2022/08/31 07:35:30;;;;;;;7.07;2.10;;;;;;;16.50;66.52;102035.50;4770853;30;20043;-61
2022/08/31 07:43:23;;;;;;;3.28;2.10;;;;;;;16.67;66.09;102023.72;4770621;30;20067;-61
2022/08/31 07:45:49;;;;;;;2.63;2.30;;;;;;;16.73;66.28;102033.31;4770493;30;20331;-61
2022/08/31 07:48:15;;;;;;;3.33;2.10;;;;;;;16.77;66.09;102035.00;4785835;30;20281;-59
2022/08/31 07:50:45;;;;;;;6.22;2.70;;;;;;;16.60;66.07;102000.06;4788313;30;20058;-60
2022/08/31 07:53:11;;;;;;;3.83;2.30;;;;;;;16.85;65.53;102035.72;4788241;29;20047;-59
2022/08/31 07:55:36;;;;;;;3.60;2.28;;;;;;;16.96;65.62;102039.03;4788119;29;20058;-59
2022/08/31 07:58:02;;;;;;;4.80;2.38;;;;;;;16.90;65.82;102035.63;4788138;30;20465;-59
2022/08/31 08:00:31;;;;;;;4.85;2.30;;;;;;;16.91;65.94;102046.16;4788160;29;20035;-61
2022/08/31 08:03:05;;;;;;;4.25;2.40;;;;;;;17.00;66.23;102045.97;4788254;29;20148;-60
2022/08/31 08:05:37;;;;;;;4.40;2.45;;;;;;;17.12;65.99;102038.69;4788009;29;20123;-59
2022/08/31 08:08:04;;;;;;;5.82;2.70;;;;;;;17.14;65.52;102047.47;4788122;29;20449;-62
2022/08/31 08:10:32;;;;;;;5.47;2.88;;;;;;;17.03;65.57;102027.41;4788005;29;20049;-60
2022/08/31 08:13:02;;;;;;;3.35;2.30;;;;;;;17.26;66.36;102047.19;4787972;29;20039;-61
2022/08/31 08:15:29;;;;;;;2.80;2.33;;;;;;;17.37;65.19;102055.75;4787993;29;20071;-63
2022/08/31 08:17:54;;;;;;;4.35;2.63;;;;;;;17.37;65.06;102048.69;4787997;29;20043;-61
2022/08/31 08:20:20;;;;;;;3.58;2.47;;;;;;;17.40;65.82;102045.13;4787809;30;20674;-60
2022/08/31 08:22:45;;;;;;;3.17;2.58;;;;;;;17.49;65.40;102058.13;4787797;29;20049;-63
2022/08/31 08:25:12;;;;;;;5.78;2.60;;;;;;;17.61;64.55;102059.63;4787804;29;20354;-61
2022/08/31 08:27:38;;;;;;;4.82;2.90;;;;;;;17.66;64.76;102063.94;4787950;29;20414;-60
2022/08/31 08:30:05;;;;;;;2.95;2.60;;;;;;;17.70;64.02;102056.78;4787665;29;20108;-63
2022/08/31 08:32:31;;;;;;;4.50;2.67;;;;;;;17.85;64.28;102050.25;4787562;29;20084;-59
2022/08/31 08:34:56;;;;;;;4.55;2.90;;;;;;;18.04;64.02;102059.50;4786753;30;20707;-62
2022/08/31 08:37:22;;;;;;;5.95;2.90;;;;;;;18.21;63.20;102054.63;4774611;30;20082;-60
2022/08/31 08:39:48;;;;;;;3.15;2.55;;;;;;;18.35;63.03;102062.25;4785762;30;20047;-63
2022/08/31 08:42:14;;;;;;;4.53;2.70;;;;;;;18.44;62.93;102062.88;4779127;29;20054;-59
2022/08/31 08:44:42;;;;;;;4.22;2.80;;;;;;;18.43;62.58;102057.59;4787666;29;20054;-59
2022/08/31 08:47:13;;;;;;;4.90;2.60;;;;;;;18.52;63.26;102075.06;4787144;29;20039;-62
2022/08/31 08:49:45;;;;;;;4.50;2.88;;;;;;;18.62;62.90;102066.84;4787277;29;20126;-61
2022/08/31 08:52:17;;;;;;;;;;;;;;;18.63;63.91;102065.06;4787700;29;20117;-60
2022/08/31 08:54:48;;;;;;;5.07;3.10;;;;;;;18.60;63.10;102071.31;4786943;30;19925;-62
2022/08/31 08:57:39;;;;;;;4.85;3.20;;;;;;;18.49;63.53;102059.22;4787141;29;20051;-62
2022/08/31 09:00:15;;;;;;;4.60;3.10;;;;;;;18.42;63.97;102062.03;4778735;29;20134;-60
2022/08/31 09:02:57;;;;;;;7.68;2.97;;;;;;;18.68;63.60;102053.44;4787725;29;20148;-60
2022/08/31 09:06:01;;;;;;;5.72;3.35;;;;;;;19.08;62.35;102037.22;4787443;29;20035;-60
2022/08/31 09:08:49;;;;;;;4.88;3.30;;;;;;;19.16;61.43;102054.72;4787237;29;20059;-58
2022/08/31 09:11:51;;;;;;;5.10;3.35;;;;;;;19.33;61.42;102047.97;4787059;29;20042;-61
2022/08/31 09:14:32;;;;;;;4.43;2.97;;;;;;;19.55;60.63;102048.22;4783824;30;20046;-59
2022/08/31 09:17:15;;;;;;;6.55;2.85;;;;;;;19.72;59.42;102058.31;4786833;29;20042;-59
2022/08/31 09:20:00;;;;;;;5.63;3.58;;;;;;;19.71;58.83;102043.28;4786872;29;20458;-60
2022/08/31 09:22:54;;;;;;;5.75;3.50;;;;;;;19.85;60.04;102049.00;4782869;29;20461;-59
2022/08/31 09:25:28;;;;;;;3.97;3.50;;;;;;;19.97;58.21;102045.06;4774144;30;20089;-60
2022/08/31 09:27:56;;;;;;;6.65;3.28;;;;;;;20.17;58.11;102042.63;4774883;30;20032;-59
2022/08/31 09:30:43;;;;;;;4.57;3.40;;;;;;;20.35;58.82;102041.13;4781702;29;20458;-60
2022/08/31 09:33:26;;;;;;;6.95;3.60;;;;;;;20.53;57.97;102040.50;4786546;29;20184;-59
2022/08/31 09:36:12;;;;;;;5.25;3.47;;;;;;;20.51;57.01;102052.97;4786350;29;20082;-62
2022/08/31 09:38:39;;;;;;;3.50;3.20;;;;;;;20.54;57.47;102046.69;4786868;29;20031;-59
2022/08/31 09:41:28;;;;;;;5.70;3.55;;;;;;;20.55;57.79;102045.78;4786485;29;20035;-59
2022/08/31 09:44:14;;;;;;;6.43;3.53;;;;;;;20.42;57.82;102043.56;4786682;29;20043;-61
2022/08/31 09:46:49;;;;;;;5.03;4.20;;;;;;;20.59;57.74;102036.75;4786386;30;20477;-61
2022/08/31 09:49:36;;;;;;;7.90;3.30;;;;;;;20.98;57.74;102045.03;4786410;29;20134;-62
2022/08/31 09:55:12;;;;;;;6.13;3.88;;;;;;;21.02;57.33;102052.88;4786038;29;20047;-61
2022/08/31 09:55:12;;;;;;;7.57;4.10;;;;;;;21.21;55.81;102054.88;4786023;30;20153;-59
2022/08/31 09:57:51;;;;;;;5.88;4.10;;;;;;;21.46;56.13;102058.31;4786516;29;20043;-60
2022/08/31 10:00:38;;;;;;;4.85;3.70;;;;;;;21.72;54.87;102034.16;4785222;30;20358;-61
2022/08/31 10:03:27;;;;;;;7.30;3.75;;;;;;;21.88;54.64;102039.72;4786388;29;20084;-60
2022/08/31 10:05:54;;;;;;;4.93;3.75;;;;;;;22.02;53.93;102032.03;4770014;30;20088;-62
2022/08/31 10:08:56;;;;;;;4.38;3.78;;;;;;;22.07;53.87;102034.53;4767876;30;20118;-61
2022/08/31 10:11:27;;;;;;;5.85;3.60;;;;;;;22.10;53.14;102031.72;4768177;30;20520;-61
2022/08/31 10:13:59;;;;;;;5.18;3.30;;;;;;;22.31;53.17;102032.63;4768037;30;20051;-62
2022/08/31 10:16:34;;;;;;;5.50;3.65;;;;;;;22.43;52.45;102026.75;4767421;30;20059;-62
2022/08/31 10:19:10;;;;;;;4.57;3.38;;;;;;;22.12;53.16;102019.22;4768409;30;20096;-59
2022/08/31 10:21:47;;;;;;;6.43;3.90;;;;;;;22.06;53.61;102030.13;4768253;30;20079;-60
2022/08/31 10:24:57;;;;;;;5.38;4.00;;;;;;;22.27;52.90;102029.22;4767828;30;20515;-61
2022/08/31 10:27:31;;;;;;;6.25;3.85;;;;;;;22.05;53.38;102009.72;4715814;30;20378;-61
2022/08/31 10:30:15;;;;;;;7.45;3.85;;;;;;;22.09;53.88;102025.53;4764768;30;20058;-59
2022/08/31 10:32:46;;;;;;;5.65;4.38;;;;;;;21.97;53.80;102026.03;4780113;30;20055;-61
2022/08/31 10:35:18;;;;;;;7.97;4.15;;;;;;;21.80;54.55;102026.72;4779711;30;20058;-62
2022/08/31 10:37:48;;;;;;;;;;;;;;;21.95;54.65;102027.03;4774089;29;20046;-59
2022/08/31 10:40:34;;;;;;;6.05;4.18;;;;;;;21.98;53.80;102001.09;4784495;30;19940;-61
2022/08/31 10:43:12;;;;;;;6.22;4.30;;;;;;;22.25;53.50;102022.19;4785880;29;20046;-60
2022/08/31 10:45:44;;;;;;;4.68;3.78;;;;;;;22.35;53.62;102021.72;4785963;29;20078;-59
2022/08/31 10:48:11;;;;;;;7.40;4.18;;;;;;;22.38;53.54;102012.72;4785775;29;20044;-60
2022/08/31 10:50:38;;;;;;;5.68;3.80;;;;;;;22.43;53.20;102016.94;4785997;29;20070;-60
2022/08/31 10:53:30;;;;;;;7.03;3.88;;;;;;;22.67;54.03;102003.44;4780022;29;20141;-61
2022/08/31 10:56:26;;;;;;;4.85;4.25;;;;;;;22.90;52.29;102006.81;4781224;30;20059;-61
2022/08/31 10:59:04;;;;;;;6.15;4.28;;;;;;;23.07;51.91;102019.38;4784361;29;20405;-59
2022/08/31 11:01:45;;;;;;;4.55;3.45;;;;;;;23.48;51.67;102013.84;4778256;30;20067;-60
2022/08/31 11:04:35;;;;;;;5.40;3.70;;;;;;;23.58;51.35;102010.69;4785383;29;20422;-63
2022/08/31 11:07:04;;;;;;;6.00;3.70;;;;;;;23.70;50.05;102013.72;4768482;30;20439;-59
2022/08/31 11:09:39;;;;;;;5.65;3.65;;;;;;;23.66;50.20;102004.97;4779068;30;20449;-61
2022/08/31 11:12:17;;;;;;;5.25;3.60;;;;;;;23.77;49.98;102013.31;4772736;30;20148;-62
2022/08/31 11:14:57;;;;;;;7.97;4.10;;;;;;;23.94;49.77;102007.97;4770932;30;20050;-60
2022/08/31 11:17:22;;;;;;;5.28;4.22;;;;;;;23.89;48.90;102002.03;4771246;30;20042;-61
2022/08/31 11:20:15;;;;;;;5.60;4.10;;;;;;;23.83;49.29;102002.31;4772481;30;20039;-60
2022/08/31 11:22:47;;;;;;;7.38;4.25;;;;;;;23.54;49.54;102009.13;4788755;29;20077;-61
2022/08/31 11:25:27;;;;;;;5.57;4.70;;;;;;;23.54;49.83;102018.94;4788750;29;20043;-64
2022/08/31 11:28:15;;;;;;;10.40;4.68;;;;;;;23.49;50.20;102004.91;4788473;30;20114;-58
2022/08/31 11:30:47;;;;;;;8.02;4.47;;;;;;;23.36;50.02;102004.66;4788797;29;20070;-61
2022/08/31 11:33:21;;;;;;;5.57;4.22;;;;;;;23.50;49.69;102001.28;4788198;29;20097;-60
2022/08/31 11:35:59;;;;;;;6.82;3.83;;;;;;;23.46;50.66;102003.25;4775155;30;20043;-60
2022/08/31 11:38:51;;;;;;;6.20;3.40;;;;;;;23.38;51.29;101988.53;4770736;30;20039;-58
2022/08/31 11:41:45;;;;;;;8.02;4.10;;;;;;;23.40;50.90;101990.19;4785257;30;20039;-60
2022/08/31 11:44:35;;;;;;;7.15;3.95;;;;;;;23.04;51.45;102000.81;4788506;29;20349;-60
2022/08/31 11:47:26;;;;;;;6.05;3.85;;;;;;;23.07;52.11;101997.13;4788258;29;20035;-59
2022/08/31 11:50:01;;;;;;;4.93;3.50;;;;;;;23.08;51.37;101994.41;4788052;29;20035;-58